Time;durP1;ratioP1;P1;durP2;ratioP2;P2;SDS_P1;SDS_P2;PMS_P1;PMS_P2;Temp;Humidity;BMP_temperature;BMP_pressure;BME280_temperature;BME280_humidity;BME280_pressure;Samples;Min_cycle;Max_cycle;Signal;HPM_P1;HPM_P2
2022/08/19 00:00:27;;;;;;;31.75;23.15;;;20.30;99.90;;;;;;5009649;28;20045;-76
2022/08/19 00:02:53;;;;;;;30.90;22.80;;;20.30;99.90;;;;;;5008065;28;20021;-76
2022/08/19 00:05:20;;;;;;;32.38;22.00;;;20.30;99.90;;;;;;5010038;28;20395;-76
2022/08/19 00:07:48;;;;;;;31.02;22.35;;;20.30;99.90;;;;;;5006518;28;20026;-77
2022/08/19 00:10:15;;;;;;;29.45;22.92;;;20.30;99.90;;;;;;5006776;28;20025;-76
2022/08/19 00:12:41;;;;;;;25.98;21.02;;;20.30;99.90;;;;;;5010430;28;20034;-75
2022/08/19 00:15:12;;;;;;;30.17;23.20;;;20.20;99.90;;;;;;5009360;28;20026;-75
2022/08/19 00:17:39;;;;;;;32.10;23.67;;;20.20;99.90;;;;;;5018818;28;20126;-76
2022/08/19 00:20:07;;;;;;;31.00;22.58;;;20.20;99.90;;;;;;5009576;28;20061;-75
2022/08/19 00:22:33;;;;;;;31.73;23.25;;;20.20;99.90;;;;;;5005720;28;20104;-76
2022/08/19 00:24:59;;;;;;;34.58;23.98;;;20.20;99.90;;;;;;5004353;28;20053;-76
2022/08/19 00:27:25;;;;;;;30.63;22.98;;;20.10;99.90;;;;;;5015927;28;20049;-75
2022/08/19 00:29:50;;;;;;;32.38;23.27;;;20.10;99.90;;;;;;5013647;28;20022;-76
2022/08/19 00:32:16;;;;;;;33.30;24.17;;;20.10;99.90;;;;;;5015817;28;20040;-76
2022/08/19 00:34:43;;;;;;;31.17;22.80;;;20.10;99.90;;;;;;5015442;28;20147;-77
2022/08/19 00:37:09;;;;;;;35.38;26.27;;;20.10;99.90;;;;;;5016691;28;20845;-76
2022/08/19 00:39:35;;;;;;;38.78;25.02;;;20.10;99.90;;;;;;5028028;28;20026;-76
2022/08/19 00:42:01;;;;;;;32.95;25.33;;;20.00;99.90;;;;;;5014631;28;20091;-77
2022/08/19 00:44:28;;;;;;;32.58;24.27;;;20.00;99.90;;;;;;5024315;28;20018;-76
2022/08/19 00:46:57;;;;;;;30.17;22.80;;;20.00;99.90;;;;;;5014141;28;20056;-75
2022/08/19 00:49:50;;;;;;;34.10;22.95;;;20.10;99.90;;;;;;5011598;28;20030;-76
2022/08/19 00:52:21;;;;;;;32.75;23.98;;;20.00;99.90;;;;;;5012103;28;20018;-75
2022/08/19 00:54:48;;;;;;;34.28;24.95;;;20.00;99.90;;;;;;5011962;28;20487;-75
2022/08/19 00:57:17;;;;;;;34.10;25.77;;;20.00;99.90;;;;;;5006470;28;20054;-75
2022/08/19 00:59:47;;;;;;;33.40;25.02;;;20.00;99.90;;;;;;5010622;28;20038;-75
2022/08/19 01:02:15;;;;;;;33.17;24.42;;;19.90;99.90;;;;;;5007029;28;20033;-75
2022/08/19 01:04:40;;;;;;;35.20;25.58;;;20.00;99.90;;;;;;5010479;28;20467;-75
2022/08/19 01:07:07;;;;;;;32.15;24.67;;;20.00;99.90;;;;;;4992187;28;20030;-75
2022/08/19 01:09:33;;;;;;;33.47;24.60;;;20.00;99.90;;;;;;5006310;28;20034;-75
2022/08/19 01:11:59;;;;;;;29.67;22.58;;;20.00;99.90;;;;;;5011125;28;20414;-76
2022/08/19 01:14:25;;;;;;;29.02;22.77;;;19.90;99.90;;;;;;5008179;28;20046;-76
2022/08/19 01:16:54;;;;;;;32.47;23.75;;;19.90;99.90;;;;;;5009820;28;20052;-76
2022/08/19 01:19:31;;;;;;;33.00;23.90;;;19.90;99.90;;;;;;5009858;28;20034;-75
2022/08/19 01:22:08;;;;;;;30.23;22.35;;;19.90;99.90;;;;;;5011889;28;20033;-75
2022/08/19 01:24:35;;;;;;;28.55;21.02;;;19.90;99.90;;;;;;5010749;28;20148;-75
2022/08/19 01:27:04;;;;;;;28.02;21.58;;;19.90;99.90;;;;;;5013539;28;20026;-74
2022/08/19 01:29:30;;;;;;;26.80;19.95;;;19.90;99.90;;;;;;5001242;28;20052;-75
2022/08/19 01:31:55;;;;;;;29.95;22.27;;;19.90;99.90;;;;;;5015139;28;20109;-75
2022/08/19 01:34:21;;;;;;;28.33;21.27;;;19.90;99.90;;;;;;5004326;28;20478;-75
2022/08/19 01:36:48;;;;;;;25.58;20.08;;;19.90;99.90;;;;;;5008440;28;20087;-75
2022/08/19 01:39:19;;;;;;;32.28;21.23;;;19.90;99.90;;;;;;5008121;28;20152;-75
2022/08/19 01:41:45;;;;;;;28.05;19.98;;;19.90;99.90;;;;;;5013670;28;20022;-75
2022/08/19 01:44:11;;;;;;;24.45;19.00;;;19.90;99.90;;;;;;5012690;28;20034;-75
2022/08/19 01:46:37;;;;;;;27.90;20.63;;;19.90;99.90;;;;;;5011688;28;20045;-75
2022/08/19 01:49:04;;;;;;;31.73;20.70;;;19.90;99.90;;;;;;5010622;28;20030;-75
2022/08/19 01:51:30;;;;;;;27.05;19.63;;;19.90;99.90;;;;;;5011680;28;20065;-74
2022/08/19 01:53:56;;;;;;;30.08;20.02;;;19.80;99.90;;;;;;5014121;28;20049;-75
2022/08/19 01:56:23;;;;;;;29.00;20.67;;;19.80;99.90;;;;;;5008356;28;20055;-75
2022/08/19 01:58:55;;;;;;;27.17;20.35;;;19.80;99.90;;;;;;5009386;28;20052;-76
2022/08/19 02:01:21;;;;;;;23.70;18.33;;;19.80;99.90;;;;;;4995818;28;20025;-75
2022/08/19 02:03:46;;;;;;;29.67;20.40;;;19.80;99.90;;;;;;5013895;28;20097;-75
2022/08/19 02:06:13;;;;;;;26.08;20.05;;;19.80;99.90;;;;;;5013770;28;20520;-74
2022/08/19 02:08:40;;;;;;;31.10;20.55;;;19.70;99.90;;;;;;5013303;28;20022;-75
2022/08/19 02:11:07;;;;;;;25.08;19.58;;;19.70;99.90;;;;;;5020869;28;20548;-75
2022/08/19 02:13:33;;;;;;;29.90;19.40;;;19.60;99.90;;;;;;5014961;28;20057;-75
2022/08/19 02:15:59;;;;;;;29.77;21.08;;;19.70;99.90;;;;;;5011101;28;20502;-75
2022/08/19 02:18:26;;;;;;;27.75;19.80;;;19.70;99.90;;;;;;4999873;28;20547;-76
2022/08/19 02:20:52;;;;;;;27.75;20.33;;;19.60;99.90;;;;;;5013773;28;20072;-75
2022/08/19 02:23:18;;;;;;;26.75;20.15;;;19.60;99.90;;;;;;5011282;28;20038;-75
2022/08/19 02:25:47;;;;;;;27.83;19.40;;;19.60;99.90;;;;;;4998815;28;20030;-75
2022/08/19 02:28:13;;;;;;;31.52;20.23;;;19.60;99.90;;;;;;4994423;28;20049;-74
2022/08/19 02:30:41;;;;;;;31.08;19.33;;;19.60;99.90;;;;;;4994824;28;20407;-75
2022/08/19 02:33:06;;;;;;;27.83;19.77;;;19.60;99.90;;;;;;5024293;28;20030;-74
2022/08/19 02:35:32;;;;;;;29.70;20.00;;;19.60;99.90;;;;;;5013999;28;20030;-75
2022/08/19 02:40:49;;;;;;;;;;;19.60;99.90;;;;;;5012516;28;20024;-75
2022/08/19 02:43:15;;;;;;;28.95;19.55;;;19.60;99.90;;;;;;5008148;28;19969;-75
2022/08/19 02:45:41;;;;;;;28.58;20.70;;;19.60;99.90;;;;;;5013053;28;20533;-74
2022/08/19 02:48:07;;;;;;;29.10;20.27;;;19.60;99.90;;;;;;5010817;28;20026;-74
2022/08/19 02:50:33;;;;;;;30.05;19.77;;;19.60;99.90;;;;;;5022868;28;20032;-74
2022/08/19 02:52:58;;;;;;;29.90;20.33;;;19.60;99.90;;;;;;5008016;28;20022;-74
2022/08/19 02:55:24;;;;;;;26.13;19.75;;;19.60;99.90;;;;;;5019873;28;20026;-75
2022/08/19 02:57:50;;;;;;;27.98;20.08;;;19.60;99.90;;;;;;5014963;28;20037;-75
2022/08/19 03:00:16;;;;;;;29.00;20.17;;;19.60;99.90;;;;;;5012361;28;20105;-75
2022/08/19 03:02:41;;;;;;;31.17;21.58;;;19.50;99.90;;;;;;5013113;28;20049;-75
2022/08/19 03:05:09;;;;;;;27.40;19.80;;;19.60;99.90;;;;;;5013025;28;20064;-75
2022/08/19 03:07:36;;;;;;;28.98;20.50;;;19.60;99.90;;;;;;5009223;28;20024;-76
2022/08/19 03:10:02;;;;;;;28.50;20.60;;;19.60;99.90;;;;;;4998766;28;20033;-76
2022/08/19 03:12:28;;;;;;;30.55;21.90;;;19.60;99.90;;;;;;5015874;28;20022;-76
2022/08/19 03:14:54;;;;;;;29.08;19.38;;;19.50;99.90;;;;;;5013649;28;20496;-76
2022/08/19 03:17:19;;;;;;;28.23;19.92;;;19.50;99.90;;;;;;5009377;28;20028;-76
2022/08/19 03:19:45;;;;;;;27.67;18.65;;;19.50;99.90;;;;;;5005516;28;20356;-75
2022/08/19 03:22:11;;;;;;;29.40;20.13;;;19.50;99.90;;;;;;5011569;28;20494;-76
2022/08/19 03:24:38;;;;;;;28.98;20.35;;;19.50;99.90;;;;;;4991176;28;20033;-76
2022/08/19 03:27:04;;;;;;;26.92;19.98;;;19.50;99.90;;;;;;5008358;28;20352;-76
2022/08/19 03:29:32;;;;;;;29.17;19.85;;;19.50;99.90;;;;;;5004539;28;20060;-74
2022/08/19 03:32:03;;;;;;;30.45;20.77;;;19.50;99.90;;;;;;5007196;28;20076;-76
2022/08/19 03:34:31;;;;;;;35.63;22.05;;;19.50;99.90;;;;;;4996715;28;20026;-75
2022/08/19 03:37:03;;;;;;;31.85;20.23;;;19.50;99.90;;;;;;5005374;28;20030;-76
2022/08/19 03:39:28;;;;;;;33.45;22.35;;;19.50;99.90;;;;;;5006600;28;20371;-75
2022/08/19 03:41:59;;;;;;;33.75;21.95;;;19.50;99.90;;;;;;4999690;28;20025;-75
2022/08/19 03:44:25;;;;;;;34.00;22.77;;;19.50;99.90;;;;;;5007235;28;20029;-74
2022/08/19 03:46:54;;;;;;;33.25;22.63;;;19.50;99.90;;;;;;5012443;28;20022;-75
2022/08/19 03:49:21;;;;;;;30.15;21.20;;;19.40;99.90;;;;;;5010198;28;20035;-75
2022/08/19 03:51:48;;;;;;;34.35;21.50;;;19.40;99.90;;;;;;5011919;28;20026;-75
2022/08/19 03:54:16;;;;;;;31.75;22.42;;;19.40;99.90;;;;;;5011468;28;20097;-75
2022/08/19 03:56:44;;;;;;;33.42;21.70;;;19.40;99.90;;;;;;5012561;28;20036;-75
2022/08/19 03:59:13;;;;;;;31.35;22.08;;;19.40;99.90;;;;;;5010288;28;20026;-75
2022/08/19 04:01:39;;;;;;;34.53;24.13;;;19.40;99.90;;;;;;5018509;28;20108;-75
2022/08/19 04:04:05;;;;;;;34.55;23.65;;;19.40;99.90;;;;;;5017479;28;20022;-75
2022/08/19 04:06:35;;;;;;;34.30;23.13;;;19.40;99.90;;;;;;5011907;28;20133;-74
2022/08/19 04:09:05;;;;;;;34.42;22.88;;;19.40;99.90;;;;;;5015359;28;20029;-74
2022/08/19 04:11:36;;;;;;;35.38;22.85;;;19.40;99.90;;;;;;5012870;28;20028;-75
2022/08/19 04:14:01;;;;;;;32.55;23.15;;;19.40;99.90;;;;;;5009190;28;20549;-75
2022/08/19 04:16:31;;;;;;;32.47;22.80;;;19.40;99.90;;;;;;5009842;28;20026;-75
2022/08/19 04:19:00;;;;;;;33.75;24.23;;;19.40;99.90;;;;;;4997389;28;20030;-75
2022/08/19 04:21:27;;;;;;;33.10;22.67;;;19.40;99.90;;;;;;5011760;28;20022;-75
2022/08/19 04:23:54;;;;;;;31.98;22.83;;;19.40;99.90;;;;;;5018249;28;20079;-75
2022/08/19 04:26:27;;;;;;;29.40;21.33;;;19.40;99.90;;;;;;5012184;28;20026;-75
2022/08/19 04:28:54;;;;;;;33.80;22.23;;;19.40;99.90;;;;;;5001547;28;20442;-74
2022/08/19 04:31:28;;;;;;;33.13;21.80;;;19.40;99.90;;;;;;5013407;28;20031;-75
2022/08/19 04:33:56;;;;;;;33.22;23.15;;;19.40;99.90;;;;;;5015741;28;20049;-75
2022/08/19 04:36:28;;;;;;;31.55;22.40;;;19.40;99.90;;;;;;5022470;28;21442;-75
2022/08/19 04:39:02;;;;;;;31.30;21.67;;;19.40;99.90;;;;;;5014041;28;20022;-75
2022/08/19 04:44:13;;;;;;;32.42;22.67;;;19.40;99.90;;;;;;5030863;28;20099;-76
2022/08/19 04:46:39;;;;;;;31.45;21.05;;;19.40;99.90;;;;;;5022634;28;20026;-75
2022/08/19 04:49:05;;;;;;;31.70;21.02;;;19.40;99.90;;;;;;5015593;28;20026;-74
2022/08/19 04:51:33;;;;;;;32.00;21.45;;;19.40;99.90;;;;;;5015493;28;20479;-74
2022/08/19 04:54:00;;;;;;;30.55;20.75;;;19.40;99.90;;;;;;5013282;28;20618;-74
2022/08/19 04:56:27;;;;;;;30.50;21.63;;;19.40;99.90;;;;;;5008583;28;20034;-74
2022/08/19 04:58:55;;;;;;;29.45;20.98;;;19.40;99.90;;;;;;5006196;28;20522;-73
2022/08/19 05:01:25;;;;;;;30.73;21.13;;;19.40;99.90;;;;;;5015602;28;20364;-75
2022/08/19 05:03:51;;;;;;;32.92;21.42;;;19.40;99.90;;;;;;5016237;28;20026;-74
2022/08/19 05:06:19;;;;;;;32.30;22.00;;;19.40;99.90;;;;;;5015091;28;20506;-74
2022/08/19 05:08:45;;;;;;;31.65;21.27;;;19.40;99.90;;;;;;5009225;28;20387;-74
2022/08/19 05:11:29;;;;;;;33.13;21.15;;;19.40;99.90;;;;;;5016028;28;20542;-74
2022/08/19 05:13:55;;;;;;;36.60;22.77;;;19.40;99.90;;;;;;5017821;28;20021;-74
2022/08/19 05:16:23;;;;;;;32.15;21.50;;;19.40;99.90;;;;;;5010284;28;20390;-74
2022/08/19 05:24:33;;;;;;;29.92;20.20;;;19.40;99.90;;;;;;4991145;28;20120;-74
2022/08/19 05:27:02;;;;;;;31.83;20.70;;;19.40;99.90;;;;;;5013496;28;20022;-73
2022/08/19 05:29:28;;;;;;;32.55;22.27;;;19.40;99.90;;;;;;5009576;28;20030;-73
2022/08/19 05:31:55;;;;;;;33.50;22.90;;;19.40;99.90;;;;;;5006962;28;20041;-76
2022/08/19 05:34:24;;;;;;;34.25;22.85;;;19.40;99.90;;;;;;5010673;28;20052;-76
2022/08/19 05:36:56;;;;;;;34.08;22.17;;;19.40;99.90;;;;;;5011027;28;20374;-71
2022/08/19 05:39:23;;;;;;;35.58;22.45;;;19.40;99.90;;;;;;5005453;28;20030;-71
2022/08/19 05:41:52;;;;;;;28.92;19.40;;;19.40;99.90;;;;;;5007257;28;20109;-71
2022/08/19 05:44:19;;;;;;;36.55;23.55;;;19.40;99.90;;;;;;5009924;28;20023;-71
2022/08/19 05:46:52;;;;;;;34.80;22.67;;;19.40;99.90;;;;;;5001103;28;20078;-70
2022/08/19 05:49:19;;;;;;;34.35;21.58;;;19.50;99.90;;;;;;5008952;28;20026;-71
2022/08/19 05:51:45;;;;;;;35.42;22.05;;;19.50;99.90;;;;;;5012171;28;20029;-70
2022/08/19 05:54:13;;;;;;;31.42;20.95;;;19.50;99.90;;;;;;5009895;28;20363;-70
2022/08/19 05:56:39;;;;;;;32.38;22.48;;;19.50;99.90;;;;;;5008858;28;20026;-71
2022/08/19 05:59:11;;;;;;;31.00;21.10;;;19.50;99.90;;;;;;4998057;28;20033;-75
2022/08/19 06:01:42;;;;;;;33.90;23.92;;;19.50;99.90;;;;;;5003941;28;20018;-77
2022/08/19 06:04:08;;;;;;;35.05;22.20;;;19.60;99.90;;;;;;4992847;28;20105;-76
2022/08/19 06:06:35;;;;;;;34.20;23.30;;;19.60;99.90;;;;;;5010627;28;20110;-76
2022/08/19 06:09:05;;;;;;;29.85;22.25;;;19.60;99.90;;;;;;5005813;28;20120;-76
2022/08/19 06:11:37;;;;;;;37.17;23.90;;;19.60;99.90;;;;;;5004814;28;20121;-76
2022/08/19 06:14:08;;;;;;;33.97;22.57;;;19.60;99.90;;;;;;5011587;28;20085;-76
2022/08/19 06:16:38;;;;;;;37.38;25.27;;;19.60;99.90;;;;;;5011388;28;20358;-77
2022/08/19 06:19:07;;;;;;;36.90;24.48;;;19.60;99.90;;;;;;5007224;28;20081;-76
2022/08/19 06:21:36;;;;;;;37.20;24.73;;;19.60;99.90;;;;;;5007168;28;20034;-77
2022/08/19 06:24:03;;;;;;;38.17;24.95;;;19.60;99.90;;;;;;4999987;28;20698;-77
2022/08/19 06:26:29;;;;;;;35.78;23.33;;;19.60;99.90;;;;;;5006452;28;20375;-77
2022/08/19 06:28:54;;;;;;;37.95;24.33;;;19.60;99.90;;;;;;5008181;28;20033;-77
2022/08/19 06:31:25;;;;;;;41.08;24.00;;;19.70;99.90;;;;;;5007287;28;20181;-77
2022/08/19 06:33:51;;;;;;;39.33;24.75;;;19.60;99.90;;;;;;5005865;28;20034;-77
2022/08/19 06:36:18;;;;;;;36.75;24.75;;;19.60;99.90;;;;;;4992245;28;20076;-77
2022/08/19 06:38:43;;;;;;;40.05;25.35;;;19.70;99.90;;;;;;5010436;28;20029;-77
2022/08/19 06:41:09;;;;;;;37.20;25.45;;;19.70;99.90;;;;;;4996208;28;20018;-77
2022/08/19 06:43:35;;;;;;;36.75;25.23;;;19.70;99.90;;;;;;4994030;28;20053;-77
2022/08/19 06:46:03;;;;;;;37.25;23.63;;;19.60;99.90;;;;;;4835403;28;20039;-77
2022/08/19 06:48:29;;;;;;;38.13;24.65;;;19.60;99.90;;;;;;4993308;28;20073;-77
2022/08/19 06:50:55;;;;;;;39.33;26.10;;;19.70;99.90;;;;;;5004317;28;20030;-77
2022/08/19 06:53:21;;;;;;;37.53;25.80;;;19.70;99.90;;;;;;4982798;28;20026;-77
2022/08/19 06:55:47;;;;;;;41.53;27.30;;;19.70;99.90;;;;;;4988628;28;20029;-77
2022/08/19 06:58:14;;;;;;;38.00;24.42;;;19.70;99.90;;;;;;4988428;28;20487;-77
2022/08/19 07:00:40;;;;;;;38.10;25.00;;;19.70;99.90;;;;;;5002039;28;20027;-77
2022/08/19 07:03:05;;;;;;;34.75;23.92;;;19.70;99.90;;;;;;4982103;28;20109;-77
2022/08/19 07:05:31;;;;;;;35.63;24.35;;;19.70;99.90;;;;;;5002024;28;20076;-77
2022/08/19 07:07:57;;;;;;;39.80;24.48;;;19.70;99.90;;;;;;5002655;28;20126;-77
2022/08/19 07:10:23;;;;;;;38.13;25.90;;;19.70;99.90;;;;;;4986541;28;20038;-78
2022/08/19 07:12:49;;;;;;;38.95;26.60;;;19.60;99.90;;;;;;5002636;28;20027;-77
2022/08/19 07:15:16;;;;;;;39.42;25.95;;;19.60;99.90;;;;;;4981277;28;20026;-76
2022/08/19 07:17:43;;;;;;;37.92;25.60;;;19.60;99.90;;;;;;4982265;28;20023;-77
2022/08/19 07:20:10;;;;;;;37.10;24.92;;;19.60;99.90;;;;;;4981988;28;20584;-78
2022/08/19 07:22:39;;;;;;;38.25;24.83;;;19.60;99.90;;;;;;4987692;28;20033;-77
2022/08/19 07:25:08;;;;;;;42.35;26.95;;;19.60;99.90;;;;;;4980783;28;20038;-77
2022/08/19 07:27:34;;;;;;;39.20;25.38;;;19.60;99.90;;;;;;4984826;28;20023;-76
2022/08/19 07:30:00;;;;;;;36.75;24.77;;;19.60;99.90;;;;;;4985195;28;20049;-78
2022/08/19 07:32:26;;;;;;;40.60;26.52;;;19.60;99.90;;;;;;4978999;28;20037;-77
2022/08/19 07:34:52;;;;;;;44.90;26.35;;;19.70;99.90;;;;;;4980614;28;20391;-77
2022/08/19 07:37:18;;;;;;;38.72;24.60;;;19.70;99.90;;;;;;4986563;28;20030;-77
2022/08/19 07:39:43;;;;;;;45.08;27.30;;;19.70;99.90;;;;;;4982097;28;20042;-77
2022/08/19 07:42:10;;;;;;;42.28;26.60;;;19.70;99.90;;;;;;4983530;28;20052;-77
2022/08/19 07:44:37;;;;;;;40.83;25.75;;;19.60;99.90;;;;;;4988293;28;20053;-77
2022/08/19 07:47:04;;;;;;;40.05;25.95;;;19.60;99.90;;;;;;4985404;28;20026;-77
2022/08/19 07:49:30;;;;;;;40.55;27.10;;;19.60;99.90;;;;;;4979169;28;20023;-77
2022/08/19 07:52:01;;;;;;;37.63;26.38;;;19.60;99.90;;;;;;4983013;28;20031;-77
2022/08/19 07:54:30;;;;;;;42.25;29.80;;;19.60;99.90;;;;;;4985282;28;20054;-77
2022/08/19 07:56:56;;;;;;;40.90;26.52;;;19.60;99.90;;;;;;4984402;28;20027;-77
2022/08/19 07:59:22;;;;;;;42.50;27.90;;;19.60;99.90;;;;;;4985065;28;20038;-77
2022/08/19 08:01:49;;;;;;;43.00;28.23;;;19.60;99.90;;;;;;4983090;28;20045;-77
2022/08/19 08:09:44;;;;;;;;;;;19.60;99.90;;;;;;4984826;28;20085;-77
2022/08/19 08:12:12;;;;;;;45.00;28.23;;;19.60;99.90;;;;;;4986982;28;19999;-77
2022/08/19 08:14:37;;;;;;;41.05;27.85;;;19.60;99.90;;;;;;5002048;28;20042;-77
2022/08/19 08:17:05;;;;;;;42.00;28.23;;;19.60;99.90;;;;;;4982760;28;20034;-77
2022/08/19 08:19:32;;;;;;;39.88;27.63;;;19.60;99.90;;;;;;4980604;28;20479;-77
2022/08/19 08:22:00;;;;;;;40.53;26.73;;;19.60;99.90;;;;;;4992742;28;20031;-77
2022/08/19 08:24:28;;;;;;;42.85;27.67;;;19.60;99.90;;;;;;4986253;28;20102;-77
2022/08/19 08:26:54;;;;;;;45.28;27.80;;;19.60;99.90;;;;;;4987370;28;20049;-77
2022/08/19 08:29:20;;;;;;;39.97;27.55;;;19.50;99.90;;;;;;4978917;28;20034;-77
2022/08/19 08:31:46;;;;;;;44.30;29.83;;;19.50;99.90;;;;;;5001437;28;20038;-77
2022/08/19 08:34:13;;;;;;;37.72;27.17;;;19.60;99.90;;;;;;4996365;28;20031;-77
2022/08/19 08:36:42;;;;;;;41.40;28.63;;;19.50;99.90;;;;;;4984763;28;20035;-77
2022/08/19 08:39:19;;;;;;;47.35;29.20;;;19.50;99.90;;;;;;4983131;28;20081;-76
2022/08/19 08:41:56;;;;;;;47.55;30.65;;;19.50;99.90;;;;;;4984842;28;20038;-75
2022/08/19 08:44:37;;;;;;;44.03;29.08;;;19.50;99.90;;;;;;4987228;28;20619;-75
2022/08/19 08:47:12;;;;;;;47.28;31.10;;;19.50;99.90;;;;;;4987162;28;20018;-77
2022/08/19 08:50:01;;;;;;;44.65;28.67;;;19.50;99.90;;;;;;5004937;28;20134;-77
2022/08/19 08:52:36;;;;;;;50.22;29.73;;;19.50;99.90;;;;;;5006929;28;20034;-77
2022/08/19 08:55:19;;;;;;;44.60;29.13;;;19.50;99.90;;;;;;4994920;28;20033;-77
2022/08/19 08:57:50;;;;;;;49.80;30.02;;;19.40;99.90;;;;;;4990737;28;20031;-77
2022/08/19 09:00:26;;;;;;;47.65;31.60;;;19.40;99.90;;;;;;5004835;28;20027;-77
2022/08/19 09:02:53;;;;;;;43.25;27.67;;;19.40;99.90;;;;;;4986520;28;20537;-77
2022/08/19 09:05:21;;;;;;;48.75;30.35;;;19.40;99.90;;;;;;4989454;28;20035;-77
2022/08/19 09:08:13;;;;;;;48.47;30.60;;;19.40;99.90;;;;;;4981902;28;20061;-77
2022/08/19 09:10:46;;;;;;;56.13;30.35;;;19.30;99.90;;;;;;5007295;28;20414;-77
2022/08/19 09:13:31;;;;;;;47.85;30.08;;;19.20;99.90;;;;;;4985014;28;20428;-77
2022/08/19 09:16:08;;;;;;;48.08;30.48;;;19.20;99.90;;;;;;4983962;28;20023;-77
2022/08/19 09:18:57;;;;;;;47.05;29.05;;;19.20;99.90;;;;;;4990950;28;20468;-76
2022/08/19 09:21:25;;;;;;;46.85;30.13;;;19.20;99.90;;;;;;4989020;28;20034;-77
2022/08/19 09:23:51;;;;;;;47.78;30.55;;;19.20;99.90;;;;;;4987490;28;20034;-77
2022/08/19 09:26:21;;;;;;;47.53;30.63;;;19.20;99.90;;;;;;4986686;28;20534;-77
2022/08/19 09:28:48;;;;;;;47.22;30.60;;;19.20;99.90;;;;;;4986010;28;20022;-77
2022/08/19 09:31:18;;;;;;;43.80;28.65;;;19.10;99.90;;;;;;4983291;28;20033;-77
2022/08/19 09:33:44;;;;;;;47.05;28.88;;;19.20;99.90;;;;;;5003411;28;20034;-77
2022/08/19 09:36:12;;;;;;;45.72;29.63;;;19.10;99.90;;;;;;4982054;28;20101;-77
2022/08/19 09:38:41;;;;;;;49.10;30.40;;;19.20;99.90;;;;;;4979552;28;20511;-76
2022/08/19 09:41:14;;;;;;;50.13;31.30;;;19.20;99.90;;;;;;4982636;28;20026;-76
2022/08/19 09:43:41;;;;;;;44.27;29.40;;;19.10;99.90;;;;;;4987222;28;20031;-76
2022/08/19 09:46:09;;;;;;;47.10;28.35;;;19.10;99.90;;;;;;5002420;28;20037;-76
2022/08/19 09:48:42;;;;;;;44.90;30.02;;;19.10;99.90;;;;;;4985841;28;20026;-76
2022/08/19 09:51:08;;;;;;;43.05;29.17;;;19.10;99.90;;;;;;4987154;28;20357;-76
2022/08/19 09:53:35;;;;;;;44.92;30.30;;;19.20;99.90;;;;;;4985942;28;20384;-77
2022/08/19 09:56:02;;;;;;;43.22;27.85;;;19.10;99.90;;;;;;4988103;28;20092;-78
2022/08/19 09:58:29;;;;;;;45.53;29.65;;;19.20;99.90;;;;;;4985990;28;20042;-77
2022/08/19 10:00:56;;;;;;;42.60;29.20;;;19.20;99.90;;;;;;4982244;28;20498;-77
2022/08/19 10:03:22;;;;;;;44.55;30.20;;;19.20;99.90;;;;;;5002330;28;20038;-76
2022/08/19 10:05:48;;;;;;;42.75;28.67;;;19.20;99.90;;;;;;4988486;28;20034;-76
2022/08/19 10:08:21;;;;;;;42.38;28.10;;;19.20;99.90;;;;;;4989274;28;20077;-76
2022/08/19 10:10:48;;;;;;;43.60;30.15;;;19.20;99.90;;;;;;4987594;28;20026;-76
2022/08/19 10:13:15;;;;;;;44.97;29.98;;;19.20;99.90;;;;;;4989457;28;20101;-76
2022/08/19 10:15:41;;;;;;;40.28;28.20;;;19.20;99.90;;;;;;5005258;28;20037;-76
2022/08/19 10:18:08;;;;;;;44.83;28.83;;;19.20;99.90;;;;;;4982990;28;20030;-76
2022/08/19 10:20:35;;;;;;;45.33;29.33;;;19.20;99.90;;;;;;4987714;28;20113;-76
2022/08/19 10:23:01;;;;;;;45.95;30.20;;;19.20;99.90;;;;;;4986530;28;20073;-76
2022/08/19 10:25:27;;;;;;;46.03;29.38;;;19.20;99.90;;;;;;5000363;28;20038;-76
2022/08/19 10:27:53;;;;;;;45.50;29.73;;;19.20;99.90;;;;;;4985354;28;20027;-76
2022/08/19 10:30:19;;;;;;;48.83;29.58;;;19.10;99.90;;;;;;5004737;28;20038;-76
2022/08/19 10:32:45;;;;;;;43.55;28.42;;;19.10;99.90;;;;;;4986381;28;20092;-76
2022/08/19 10:35:12;;;;;;;48.38;30.42;;;19.10;99.90;;;;;;4984391;28;20019;-76
2022/08/19 10:37:39;;;;;;;41.72;28.55;;;19.10;99.90;;;;;;4999121;28;20018;-76
2022/08/19 10:40:07;;;;;;;45.28;29.88;;;19.10;99.90;;;;;;4982615;28;20114;-76
2022/08/19 10:42:34;;;;;;;41.83;29.15;;;19.10;99.90;;;;;;4980619;28;20080;-76
2022/08/19 10:44:59;;;;;;;39.88;27.50;;;19.10;99.90;;;;;;4985790;28;20114;-76
2022/08/19 10:47:25;;;;;;;37.15;26.30;;;19.10;99.90;;;;;;5002383;28;20156;-75
2022/08/19 10:52:44;;;;;;;39.40;26.27;;;19.10;99.90;;;;;;4986049;28;20110;-75
2022/08/19 10:57:55;;;;;;;42.03;27.95;;;19.10;99.90;;;;;;4979650;28;23585;-77
2022/08/19 11:00:22;;;;;;;41.17;26.80;;;19.10;99.90;;;;;;4982716;28;20030;-77
2022/08/19 11:02:48;;;;;;;38.65;26.95;;;19.20;99.90;;;;;;4983997;28;20494;-77
2022/08/19 11:05:15;;;;;;;40.15;26.45;;;19.20;99.90;;;;;;4982809;28;20026;-76
2022/08/19 11:07:41;;;;;;;38.92;26.65;;;19.20;99.90;;;;;;4983513;28;20034;-75
2022/08/19 11:10:09;;;;;;;38.10;27.23;;;19.20;99.90;;;;;;4999407;28;20483;-77
2022/08/19 11:12:39;;;;;;;38.70;27.00;;;19.10;99.90;;;;;;5001918;28;20032;-77
2022/08/19 11:15:10;;;;;;;41.55;26.85;;;19.10;99.90;;;;;;4988143;28;20046;-77
2022/08/19 11:17:43;;;;;;;43.15;28.60;;;19.10;99.90;;;;;;4985739;28;20124;-76
2022/08/19 11:20:13;;;;;;;40.28;26.77;;;19.10;99.90;;;;;;5004439;28;20038;-77
2022/08/19 11:22:40;;;;;;;41.65;27.80;;;19.10;99.90;;;;;;4980079;28;20034;-75
2022/08/19 11:25:06;;;;;;;44.83;27.52;;;19.10;99.90;;;;;;4977461;28;20030;-76
2022/08/19 11:27:33;;;;;;;40.58;27.10;;;19.10;99.90;;;;;;4978543;28;20387;-76
2022/08/19 11:30:00;;;;;;;38.95;27.77;;;19.00;99.90;;;;;;4986272;28;20031;-76
2022/08/19 11:32:26;;;;;;;45.97;32.17;;;19.10;99.90;;;;;;4984203;28;20137;-75
2022/08/19 11:34:51;;;;;;;40.78;27.70;;;19.10;99.90;;;;;;5001210;28;20162;-75
2022/08/19 11:37:17;;;;;;;43.38;28.15;;;19.10;99.90;;;;;;4999837;28;20038;-75
2022/08/19 11:39:43;;;;;;;46.00;28.40;;;19.10;99.90;;;;;;4983034;28;20126;-75
2022/08/19 11:44:54;;;;;;;41.13;27.88;;;19.10;99.90;;;;;;4988764;28;20554;-76
2022/08/19 11:47:20;;;;;;;40.97;27.75;;;19.10;99.90;;;;;;4986182;28;20053;-75
2022/08/19 11:49:47;;;;;;;43.13;27.73;;;19.10;99.90;;;;;;4998304;28;20407;-75
2022/08/19 11:52:13;;;;;;;38.38;27.08;;;19.10;99.90;;;;;;4984185;28;20177;-74
2022/08/19 11:54:38;;;;;;;44.78;29.35;;;19.20;99.90;;;;;;4986478;28;20585;-76
2022/08/19 11:57:04;;;;;;;43.30;30.38;;;19.20;99.90;;;;;;4982640;28;20061;-75
2022/08/19 11:59:30;;;;;;;41.45;28.50;;;19.20;99.90;;;;;;4982797;28;20037;-75
2022/08/19 12:01:56;;;;;;;45.55;27.77;;;19.20;99.90;;;;;;4982136;28;20046;-75
2022/08/19 12:04:23;;;;;;;40.70;28.02;;;19.20;99.90;;;;;;4984036;28;20041;-76
2022/08/19 12:06:49;;;;;;;41.13;27.02;;;19.10;99.90;;;;;;4986789;28;20050;-76
2022/08/19 12:09:17;;;;;;;40.55;28.88;;;19.20;99.90;;;;;;4980613;28;20026;-76
2022/08/19 12:11:42;;;;;;;42.13;29.10;;;19.20;99.90;;;;;;4981174;28;20062;-76
2022/08/19 12:14:13;;;;;;;43.33;30.30;;;19.20;99.90;;;;;;4985491;28;20069;-75
2022/08/19 12:16:41;;;;;;;39.53;28.67;;;19.20;99.90;;;;;;4984127;28;20026;-74
2022/08/19 12:19:06;;;;;;;39.05;27.85;;;19.20;99.90;;;;;;4981545;28;20027;-75
2022/08/19 12:21:34;;;;;;;42.67;28.85;;;19.20;99.90;;;;;;4989214;28;20029;-74
2022/08/19 12:24:02;;;;;;;40.13;27.35;;;19.20;99.90;;;;;;4989201;28;20045;-74
2022/08/19 12:26:29;;;;;;;37.15;27.08;;;19.20;99.90;;;;;;4986347;28;20873;-75
2022/08/19 12:28:55;;;;;;;39.33;27.27;;;19.20;99.90;;;;;;4985018;28;20453;-75
2022/08/19 12:31:21;;;;;;;36.80;25.60;;;19.20;99.90;;;;;;4983452;28;20035;-75
2022/08/19 12:33:47;;;;;;;40.30;27.55;;;19.20;99.90;;;;;;4986139;28;20092;-75
2022/08/19 12:36:17;;;;;;;39.92;26.88;;;19.20;99.90;;;;;;4988359;28;20468;-75
2022/08/19 12:38:43;;;;;;;35.28;25.65;;;19.20;99.90;;;;;;4987040;28;20033;-75
2022/08/19 12:41:12;;;;;;;39.58;26.23;;;19.20;99.90;;;;;;5002964;28;20154;-76
2022/08/19 12:43:37;;;;;;;40.00;26.27;;;19.20;99.90;;;;;;4988166;28;20018;-75
2022/08/19 12:46:06;;;;;;;35.80;24.88;;;19.20;99.90;;;;;;4989687;28;20053;-75
2022/08/19 12:48:33;;;;;;;40.17;26.65;;;19.30;99.90;;;;;;4988572;28;20148;-76
2022/08/19 12:50:59;;;;;;;36.15;25.23;;;19.30;99.90;;;;;;4984010;28;20479;-76
2022/08/19 12:53:25;;;;;;;36.58;25.10;;;19.30;99.90;;;;;;4989674;28;20089;-75
2022/08/19 12:55:59;;;;;;;35.63;24.92;;;19.40;99.90;;;;;;4989108;28;20102;-76